Time;durP1;ratioP1;P1;durP2;ratioP2;P2;SDS_P1;SDS_P2;PMS_P1;PMS_P2;Temp;Humidity;BMP_temperature;BMP_pressure;BME280_temperature;BME280_humidity;BME280_pressure;Samples;Min_cycle;Max_cycle;Signal;HPM_P1;HPM_P2
2022/12/20 00:01:59;;;;;;;26.67;13.48;;;8.30;81.80;;;;;;2379847;56;21046;-49
2022/12/20 00:04:26;;;;;;;21.65;13.10;;;8.30;81.80;;;;;;2378327;56;21041;-46
2022/12/20 00:06:53;;;;;;;20.50;12.07;;;8.30;81.70;;;;;;2378623;56;21066;-49
2022/12/20 00:09:20;;;;;;;20.10;12.32;;;8.30;81.40;;;;;;2379326;56;21050;-50
2022/12/20 00:11:48;;;;;;;21.80;11.88;;;8.30;81.50;;;;;;2378234;56;21649;-48
2022/12/20 00:14:15;;;;;;;21.08;12.60;;;8.30;81.40;;;;;;2378841;56;21850;-50
2022/12/20 00:16:42;;;;;;;21.60;12.77;;;8.30;81.40;;;;;;2378482;56;21530;-49
2022/12/20 00:19:10;;;;;;;20.25;11.68;;;8.30;81.40;;;;;;2378728;56;21051;-50
2022/12/20 00:21:38;;;;;;;20.20;10.85;;;8.30;81.50;;;;;;2380404;56;21519;-48
2022/12/20 00:24:06;;;;;;;19.45;11.75;;;8.40;81.40;;;;;;2380757;56;21015;-49
2022/12/20 00:26:35;;;;;;;25.77;12.32;;;8.30;81.40;;;;;;2380645;56;21977;-46
2022/12/20 00:29:02;;;;;;;19.67;11.55;;;8.40;81.60;;;;;;2380865;56;21619;-47
2022/12/20 00:31:31;;;;;;;20.92;11.30;;;8.40;81.60;;;;;;2380732;56;21018;-50
2022/12/20 00:33:59;;;;;;;24.42;12.48;;;8.40;81.60;;;;;;2379337;56;21071;-50
2022/12/20 00:36:28;;;;;;;18.35;11.80;;;8.40;81.60;;;;;;2379318;56;21038;-49
2022/12/20 00:38:56;;;;;;;18.95;10.95;;;8.40;81.70;;;;;;2378313;56;21550;-49
2022/12/20 00:41:27;;;;;;;21.83;10.70;;;8.40;81.70;;;;;;2379185;56;21054;-49
2022/12/20 00:43:54;;;;;;;22.80;10.65;;;8.50;81.70;;;;;;2379067;56;21073;-47
2022/12/20 00:46:22;;;;;;;19.33;11.20;;;8.50;81.60;;;;;;2378875;56;21050;-46
2022/12/20 00:48:49;;;;;;;18.70;9.90;;;8.50;81.70;;;;;;2379073;56;21047;-47
2022/12/20 00:51:20;;;;;;;20.98;11.27;;;8.50;81.70;;;;;;2379702;56;21042;-49
2022/12/20 00:53:47;;;;;;;19.62;11.50;;;8.50;81.80;;;;;;2634379;52;22095;-50
2022/12/20 00:56:15;;;;;;;20.55;11.00;;;8.50;81.70;;;;;;2378217;56;21594;-48
2022/12/20 00:58:43;;;;;;;19.52;11.40;;;8.50;81.70;;;;;;2379024;56;22182;-49
2022/12/20 01:01:18;;;;;;;15.02;9.20;;;8.50;81.60;;;;;;2379301;56;21610;-50
2022/12/20 01:03:45;;;;;;;18.67;10.18;;;8.50;81.30;;;;;;2379110;56;21039;-49
2022/12/20 01:06:12;;;;;;;14.50;9.27;;;8.50;81.20;;;;;;2378019;56;21733;-47
2022/12/20 01:08:39;;;;;;;15.85;9.18;;;8.60;81.20;;;;;;2378422;56;21796;-46
2022/12/20 01:11:10;;;;;;;15.13;9.80;;;8.60;81.30;;;;;;2378624;56;21118;-50
2022/12/20 01:13:40;;;;;;;19.52;11.02;;;8.60;81.20;;;;;;2379189;56;22090;-49
2022/12/20 01:16:10;;;;;;;17.80;10.25;;;8.60;81.40;;;;;;2379171;56;21530;-50
2022/12/20 01:18:37;;;;;;;16.27;9.68;;;8.60;81.40;;;;;;2381474;56;21543;-50
2022/12/20 01:21:07;;;;;;;16.73;10.07;;;8.60;81.40;;;;;;2381181;56;21018;-46
2022/12/20 01:23:34;;;;;;;21.12;9.85;;;8.60;81.50;;;;;;2379163;56;21094;-50
2022/12/20 01:26:03;;;;;;;16.50;9.90;;;8.60;81.10;;;;;;2379622;56;21582;-50
2022/12/20 01:28:32;;;;;;;18.27;10.10;;;8.70;81.20;;;;;;2378867;56;21523;-49
2022/12/20 01:30:59;;;;;;;15.82;9.15;;;8.70;81.20;;;;;;2378874;56;21771;-49
2022/12/20 01:33:26;;;;;;;17.27;8.60;;;8.70;81.00;;;;;;2379500;56;21333;-46
2022/12/20 01:35:59;;;;;;;16.20;9.85;;;8.70;81.00;;;;;;2379604;56;21109;-48
2022/12/20 01:38:27;;;;;;;17.12;10.40;;;8.70;81.30;;;;;;2379632;56;21063;-49
2022/12/20 01:40:55;;;;;;;17.77;10.35;;;8.70;81.50;;;;;;2379151;56;21055;-48
2022/12/20 01:43:24;;;;;;;15.93;8.98;;;8.70;81.60;;;;;;2378894;56;21362;-47
2022/12/20 01:45:51;;;;;;;17.20;9.82;;;8.70;81.50;;;;;;2379045;56;22025;-48
2022/12/20 01:48:24;;;;;;;16.55;9.45;;;8.70;81.20;;;;;;2379031;56;21046;-50
2022/12/20 01:50:52;;;;;;;19.58;10.30;;;8.80;81.40;;;;;;2379645;56;21526;-46
2022/12/20 01:53:22;;;;;;;14.93;8.63;;;8.80;81.30;;;;;;2379295;56;21601;-47
2022/12/20 01:55:49;;;;;;;14.40;9.43;;;8.80;81.10;;;;;;2378687;56;21042;-49
2022/12/20 01:58:19;;;;;;;21.90;10.77;;;8.80;81.40;;;;;;2378907;56;21041;-47
2022/12/20 02:00:46;;;;;;;16.77;10.05;;;8.80;81.10;;;;;;2378968;56;21046;-48
2022/12/20 02:03:15;;;;;;;16.52;9.82;;;8.90;81.30;;;;;;2379903;56;21593;-46
2022/12/20 02:05:44;;;;;;;17.92;10.00;;;8.90;81.20;;;;;;2377946;56;21062;-48
2022/12/20 02:08:15;;;;;;;13.23;9.10;;;8.90;81.10;;;;;;2381398;56;21594;-49
2022/12/20 02:10:57;;;;;;;15.85;9.20;;;8.90;81.00;;;;;;2381352;56;21022;-48
2022/12/20 02:13:34;;;;;;;13.95;8.13;;;8.90;80.90;;;;;;2381822;56;21011;-47
2022/12/20 02:16:03;;;;;;;16.55;10.68;;;9.00;80.90;;;;;;2379562;56;21177;-48
2022/12/20 02:18:40;;;;;;;15.80;9.48;;;9.00;80.80;;;;;;2380586;56;21483;-48
2022/12/20 02:21:17;;;;;;;16.45;8.82;;;9.00;80.90;;;;;;2380407;56;21526;-47
2022/12/20 02:24:12;;;;;;;17.73;10.07;;;9.00;80.80;;;;;;2378679;56;21570;-48
2022/12/20 02:30:04;;;;;;;16.52;11.02;;;9.10;80.70;;;;;;2312964;57;27902;-49
2022/12/20 02:32:36;;;;;;;13.85;8.80;;;9.10;83.50;;;;;;2347731;57;21030;-44
2022/12/20 02:35:06;;;;;;;17.95;9.02;;;9.10;82.40;;;;;;2347018;57;21064;-47
2022/12/20 02:37:33;;;;;;;14.75;9.07;;;9.20;81.70;;;;;;2345846;57;21509;-45
2022/12/20 02:40:03;;;;;;;12.37;8.23;;;9.20;81.50;;;;;;2346536;57;21042;-49
2022/12/20 02:42:33;;;;;;;14.13;9.07;;;9.20;81.40;;;;;;2346260;57;21375;-45
2022/12/20 02:45:14;;;;;;;15.98;9.35;;;9.30;81.40;;;;;;2346935;57;21576;-48
2022/12/20 02:47:48;;;;;;;17.17;8.90;;;9.30;81.20;;;;;;2346843;57;21058;-46
2022/12/20 02:50:21;;;;;;;14.73;8.40;;;9.30;81.30;;;;;;2347318;57;21109;-50
2022/12/20 02:52:49;;;;;;;14.15;9.15;;;9.30;81.10;;;;;;2345617;57;21612;-48
2022/12/20 02:55:17;;;;;;;15.50;8.55;;;9.30;81.00;;;;;;2346069;57;21660;-48
2022/12/20 02:57:51;;;;;;;13.57;9.15;;;9.30;81.10;;;;;;2346848;57;21518;-47
2022/12/20 03:00:21;;;;;;;14.77;8.32;;;9.40;81.30;;;;;;2346443;57;21565;-46
2022/12/20 03:05:43;;;;;;;13.70;8.45;;;9.40;81.20;;;;;;2348185;57;21033;-47
2022/12/20 03:08:11;;;;;;;15.18;9.57;;;9.40;80.90;;;;;;2347898;57;21041;-44
2022/12/20 03:10:38;;;;;;;17.37;9.00;;;9.40;81.00;;;;;;2345810;57;21053;-47
2022/12/20 03:13:05;;;;;;;13.77;8.82;;;9.50;81.20;;;;;;2345492;57;21045;-47
2022/12/20 03:15:33;;;;;;;12.43;7.87;;;9.50;81.20;;;;;;2346980;57;21909;-48
2022/12/20 03:18:00;;;;;;;17.85;8.75;;;9.50;81.30;;;;;;2347224;57;21109;-46
2022/12/20 03:20:27;;;;;;;14.82;8.75;;;9.50;81.30;;;;;;2347122;57;21133;-47
2022/12/20 03:22:54;;;;;;;14.55;8.60;;;9.60;81.30;;;;;;2346803;57;21024;-46
2022/12/20 03:25:22;;;;;;;15.07;8.57;;;9.60;81.30;;;;;;2347368;57;21537;-45
2022/12/20 03:27:49;;;;;;;14.85;8.90;;;9.60;81.40;;;;;;2346592;57;21116;-47
2022/12/20 03:30:16;;;;;;;13.00;9.23;;;9.60;81.40;;;;;;2347560;57;21517;-47
2022/12/20 03:32:43;;;;;;;14.90;7.80;;;9.60;81.20;;;;;;2346904;57;21105;-47
2022/12/20 03:35:10;;;;;;;12.75;8.50;;;9.70;81.40;;;;;;2347095;57;21025;-49
2022/12/20 03:37:38;;;;;;;12.88;8.18;;;9.70;81.30;;;;;;2347207;57;21030;-47
2022/12/20 03:40:08;;;;;;;17.48;9.35;;;9.70;81.10;;;;;;2346618;57;21093;-46
2022/12/20 03:42:36;;;;;;;13.57;7.82;;;9.70;81.10;;;;;;2345576;57;21081;-48
2022/12/20 03:45:05;;;;;;;14.18;7.55;;;9.70;80.90;;;;;;2344986;57;21574;-45
2022/12/20 03:47:32;;;;;;;12.00;7.65;;;9.70;81.10;;;;;;2345982;57;21029;-47
2022/12/20 03:49:59;;;;;;;13.90;8.00;;;9.70;81.10;;;;;;2345499;57;21054;-46
2022/12/20 03:52:26;;;;;;;20.83;8.38;;;9.80;81.20;;;;;;2344986;57;21057;-49
2022/12/20 03:54:53;;;;;;;13.62;8.35;;;9.70;81.10;;;;;;2345097;57;21702;-48
2022/12/20 03:57:21;;;;;;;14.48;7.60;;;9.80;81.30;;;;;;2345209;57;21065;-48
2022/12/20 03:59:48;;;;;;;14.73;8.15;;;9.80;81.20;;;;;;2346543;57;21093;-46
2022/12/20 04:02:16;;;;;;;12.37;7.85;;;9.80;81.30;;;;;;2345201;57;21521;-48
2022/12/20 04:04:43;;;;;;;12.57;7.72;;;9.80;81.10;;;;;;2345831;57;21029;-49
2022/12/20 04:07:10;;;;;;;15.57;8.50;;;9.80;81.10;;;;;;2345610;57;21086;-45
2022/12/20 04:09:37;;;;;;;13.32;7.70;;;9.80;81.20;;;;;;2346083;57;21128;-48
2022/12/20 04:12:05;;;;;;;12.32;7.82;;;9.80;81.30;;;;;;2346176;57;21113;-45
2022/12/20 04:14:32;;;;;;;12.95;7.82;;;9.90;82.00;;;;;;2344890;57;21108;-48
2022/12/20 04:16:59;;;;;;;15.93;9.20;;;9.90;81.30;;;;;;2346374;57;21030;-45
2022/12/20 04:19:26;;;;;;;12.77;7.62;;;9.90;81.40;;;;;;2593078;52;21046;-46
2022/12/20 04:21:55;;;;;;;11.75;7.70;;;10.00;81.30;;;;;;2346771;57;21046;-50
2022/12/20 04:24:22;;;;;;;11.75;8.05;;;9.90;82.00;;;;;;2345634;57;21078;-45
2022/12/20 04:26:49;;;;;;;14.75;8.32;;;10.00;81.30;;;;;;2345889;57;21026;-47
2022/12/20 04:29:16;;;;;;;13.27;7.28;;;10.00;81.30;;;;;;2346099;57;21046;-48
2022/12/20 04:31:43;;;;;;;13.82;8.00;;;9.90;81.00;;;;;;2345690;57;21113;-47
2022/12/20 04:34:10;;;;;;;11.73;7.70;;;10.00;81.30;;;;;;2345475;57;21034;-45
2022/12/20 04:36:38;;;;;;;14.32;8.27;;;10.00;81.40;;;;;;2345567;57;21097;-45
2022/12/20 04:39:05;;;;;;;11.73;7.57;;;10.00;81.10;;;;;;2345811;57;21038;-44
2022/12/20 04:41:32;;;;;;;11.60;7.15;;;10.00;81.10;;;;;;2345952;57;21054;-44
2022/12/20 04:43:59;;;;;;;11.57;7.75;;;10.00;81.10;;;;;;2345142;57;21113;-48
2022/12/20 04:46:26;;;;;;;13.18;7.50;;;10.00;81.20;;;;;;2345829;57;21204;-47
2022/12/20 04:48:54;;;;;;;12.40;8.15;;;10.00;81.10;;;;;;2344452;57;21050;-48
2022/12/20 04:51:21;;;;;;;13.00;7.70;;;10.00;81.10;;;;;;2344885;57;21074;-47
2022/12/20 04:53:48;;;;;;;12.93;7.93;;;10.10;81.20;;;;;;2343845;57;21117;-46
2022/12/20 04:56:18;;;;;;;12.05;7.25;;;10.10;81.20;;;;;;2345723;57;21027;-48
2022/12/20 04:58:46;;;;;;;15.05;7.60;;;10.10;81.20;;;;;;2345225;57;21054;-51
2022/12/20 05:01:14;;;;;;;13.40;7.35;;;10.10;81.20;;;;;;2345444;57;21518;-47
2022/12/20 05:03:41;;;;;;;15.23;7.93;;;10.10;81.10;;;;;;2345563;57;21046;-46
2022/12/20 05:06:09;;;;;;;11.55;7.35;;;10.10;81.10;;;;;;2346147;57;21608;-47
2022/12/20 05:08:37;;;;;;;12.27;7.75;;;10.10;81.00;;;;;;2343278;57;21149;-48
2022/12/20 05:11:05;;;;;;;12.50;7.62;;;10.10;81.10;;;;;;2345347;57;21129;-45
2022/12/20 05:13:32;;;;;;;14.52;8.48;;;10.10;80.90;;;;;;2345488;57;21082;-46
2022/12/20 05:16:00;;;;;;;16.60;8.85;;;10.10;81.00;;;;;;2345518;57;21513;-46
2022/12/20 05:18:28;;;;;;;12.95;7.75;;;10.10;81.20;;;;;;2345972;57;21589;-50
2022/12/20 05:26:32;;;;;;;14.90;8.95;;;10.10;81.20;;;;;;2345448;57;21084;-47
2022/12/20 05:28:59;;;;;;;16.87;8.95;;;10.10;81.20;;;;;;2345060;57;21828;-49
2022/12/20 05:31:26;;;;;;;15.15;9.52;;;10.10;81.30;;;;;;2344217;57;21050;-48
2022/12/20 05:33:54;;;;;;;14.77;8.75;;;10.00;81.40;;;;;;2347203;57;21018;-47
2022/12/20 05:36:21;;;;;;;18.90;9.23;;;10.00;81.20;;;;;;2594605;53;21094;-47
2022/12/20 05:38:48;;;;;;;15.70;9.35;;;10.00;81.40;;;;;;2347365;57;21121;-47
2022/12/20 05:41:15;;;;;;;17.33;9.73;;;10.00;81.50;;;;;;2346947;57;21530;-49
2022/12/20 05:43:43;;;;;;;13.77;8.95;;;10.00;81.50;;;;;;2346531;57;21054;-48
2022/12/20 05:46:10;;;;;;;14.48;9.32;;;10.00;81.60;;;;;;2345777;57;21045;-49
2022/12/20 05:48:37;;;;;;;17.25;9.60;;;10.00;81.60;;;;;;2344957;57;21113;-47
2022/12/20 05:51:05;;;;;;;21.65;11.32;;;10.00;81.60;;;;;;2345820;57;21101;-51
2022/12/20 05:53:32;;;;;;;22.23;11.43;;;10.00;81.70;;;;;;2345424;57;21050;-50
2022/12/20 05:56:00;;;;;;;18.37;9.70;;;10.00;81.80;;;;;;2346026;57;21034;-51
2022/12/20 05:58:27;;;;;;;22.13;10.95;;;9.90;81.70;;;;;;2345587;57;21125;-46
2022/12/20 06:00:55;;;;;;;21.42;11.23;;;10.00;81.80;;;;;;2346419;57;21594;-47
2022/12/20 06:03:22;;;;;;;16.77;9.93;;;10.00;81.90;;;;;;2345961;57;21164;-49
2022/12/20 06:05:50;;;;;;;20.58;11.38;;;10.00;81.80;;;;;;2346317;57;21050;-47
2022/12/20 06:08:17;;;;;;;15.23;9.10;;;10.00;81.80;;;;;;2346167;57;21053;-47
2022/12/20 06:10:45;;;;;;;19.30;9.75;;;10.00;81.70;;;;;;2345991;57;21058;-48
2022/12/20 06:13:12;;;;;;;18.77;10.95;;;9.90;81.70;;;;;;2345140;57;21132;-47
2022/12/20 06:15:40;;;;;;;16.90;10.50;;;10.00;81.80;;;;;;2345497;57;21565;-46
2022/12/20 06:18:07;;;;;;;18.67;10.80;;;9.90;81.60;;;;;;2345530;57;21577;-46
2022/12/20 06:20:35;;;;;;;22.30;12.85;;;9.90;81.60;;;;;;2345113;57;22096;-44
2022/12/20 06:23:03;;;;;;;17.98;11.27;;;9.90;81.70;;;;;;2345109;57;21529;-47
2022/12/20 06:25:31;;;;;;;17.62;11.15;;;10.00;82.60;;;;;;2345849;57;21129;-47
2022/12/20 06:27:58;;;;;;;16.90;10.35;;;10.00;83.70;;;;;;2347034;57;21082;-47
2022/12/20 06:30:25;;;;;;;17.52;10.48;;;10.10;83.70;;;;;;2346569;57;21013;-47
2022/12/20 06:32:52;;;;;;;17.20;10.25;;;10.10;83.30;;;;;;2346936;56;21074;-49
2022/12/20 06:35:20;;;;;;;14.93;9.70;;;10.10;82.40;;;;;;2347172;57;21660;-49
2022/12/20 06:37:47;;;;;;;23.62;11.95;;;10.10;81.70;;;;;;2345935;57;21058;-49
2022/12/20 06:40:15;;;;;;;21.67;11.68;;;10.10;81.10;;;;;;2345954;57;21061;-48
2022/12/20 06:42:42;;;;;;;19.67;11.63;;;10.10;80.70;;;;;;2345745;57;21038;-49
2022/12/20 06:45:11;;;;;;;22.67;12.30;;;10.10;80.50;;;;;;2345841;57;21112;-46
2022/12/20 06:47:38;;;;;;;19.85;11.18;;;10.00;81.20;;;;;;2345224;57;21110;-48
2022/12/20 06:50:08;;;;;;;20.98;12.07;;;10.00;80.40;;;;;;2345762;57;21050;-47
2022/12/20 06:52:35;;;;;;;18.23;11.55;;;10.00;80.40;;;;;;2346144;57;21041;-51
2022/12/20 06:55:02;;;;;;;20.10;12.70;;;9.90;80.50;;;;;;2345243;57;21097;-47
2022/12/20 07:00:13;;;;;;;22.30;12.20;;;9.90;80.70;;;;;;2505042;54;22247;-52
2022/12/20 07:02:40;;;;;;;18.75;11.60;;;9.90;80.80;;;;;;2290292;58;21059;-48
2022/12/20 07:05:09;;;;;;;20.80;10.88;;;9.90;80.80;;;;;;2289614;58;21067;-51
2022/12/20 07:07:36;;;;;;;18.25;11.12;;;9.90;80.90;;;;;;2289738;58;21607;-48
2022/12/20 07:10:05;;;;;;;17.48;11.10;;;9.90;81.90;;;;;;2290928;58;21550;-50
2022/12/20 07:12:33;;;;;;;21.02;11.40;;;9.90;81.40;;;;;;2290325;58;21122;-48
2022/12/20 07:15:00;;;;;;;15.52;10.82;;;9.90;81.60;;;;;;2291203;58;21661;-49
2022/12/20 07:17:27;;;;;;;18.30;12.13;;;9.90;81.70;;;;;;2290858;58;21078;-47
2022/12/20 07:19:54;;;;;;;23.90;12.93;;;9.90;81.70;;;;;;2291092;58;21059;-49
2022/12/20 07:22:21;;;;;;;18.55;11.20;;;9.90;81.80;;;;;;2290566;58;21115;-48
2022/12/20 07:24:49;;;;;;;20.00;12.10;;;9.90;81.80;;;;;;2291263;58;21099;-47
2022/12/20 07:27:16;;;;;;;21.52;12.82;;;9.90;81.90;;;;;;2290638;58;21673;-47
2022/12/20 07:29:43;;;;;;;18.50;10.77;;;9.90;82.80;;;;;;2290406;58;21679;-50
2022/12/20 07:32:12;;;;;;;19.55;12.13;;;9.90;82.10;;;;;;2291130;58;21059;-49
2022/12/20 07:34:39;;;;;;;17.40;12.13;;;9.90;82.30;;;;;;2291190;58;21138;-51
2022/12/20 07:37:07;;;;;;;19.25;11.80;;;9.90;82.30;;;;;;2290551;58;21051;-49
2022/12/20 07:39:34;;;;;;;20.27;12.20;;;9.90;82.20;;;;;;2291028;58;21131;-49
2022/12/20 07:42:01;;;;;;;23.77;12.45;;;9.90;82.60;;;;;;2290933;58;21047;-49
2022/12/20 07:44:29;;;;;;;19.10;11.65;;;9.80;82.90;;;;;;2291396;58;21598;-48
2022/12/20 07:46:56;;;;;;;22.62;12.82;;;9.90;83.30;;;;;;2290794;58;21606;-49
2022/12/20 07:49:23;;;;;;;28.70;13.13;;;9.90;84.20;;;;;;2291782;58;22826;-50
2022/12/20 07:51:56;;;;;;;20.58;12.63;;;9.90;84.60;;;;;;2291079;58;21122;-49
2022/12/20 07:54:27;;;;;;;22.40;13.13;;;9.90;84.10;;;;;;2290341;58;22716;-48
2022/12/20 07:56:58;;;;;;;23.73;13.32;;;9.90;84.20;;;;;;2290957;58;21060;-49
2022/12/20 07:59:28;;;;;;;18.08;11.60;;;10.00;84.30;;;;;;2290750;58;21558;-52
2022/12/20 08:04:33;;;;;;;18.58;11.82;;;10.00;84.40;;;;;;2355175;57;22082;-50
2022/12/20 08:09:40;;;;;;;22.13;14.45;;;10.00;84.20;;;;;;2315042;57;27894;-50
2022/12/20 08:12:09;;;;;;;23.48;13.55;;;9.90;86.60;;;;;;2346658;57;21529;-50
2022/12/20 08:14:37;;;;;;;19.00;12.07;;;10.10;85.80;;;;;;2347073;57;21045;-50
2022/12/20 08:17:04;;;;;;;21.20;12.98;;;10.10;85.00;;;;;;2346678;57;21106;-50
2022/12/20 08:19:31;;;;;;;18.87;12.60;;;10.10;84.50;;;;;;2346275;57;21037;-49
2022/12/20 08:21:58;;;;;;;26.73;14.63;;;10.20;84.30;;;;;;2346744;57;21093;-51
2022/12/20 08:24:25;;;;;;;21.67;13.30;;;10.20;84.00;;;;;;2594258;53;21691;-50
2022/12/20 08:26:52;;;;;;;22.77;13.90;;;10.20;83.90;;;;;;2346951;57;21050;-50
2022/12/20 08:29:20;;;;;;;21.62;13.50;;;10.20;83.70;;;;;;2346498;57;21049;-48
2022/12/20 08:31:47;;;;;;;19.50;12.10;;;10.20;83.50;;;;;;2594632;53;21546;-51
2022/12/20 08:34:14;;;;;;;19.00;13.07;;;10.20;83.50;;;;;;2347838;57;21097;-51
2022/12/20 08:36:42;;;;;;;23.10;13.02;;;10.20;83.40;;;;;;2347809;57;21125;-49
2022/12/20 08:39:10;;;;;;;19.95;12.60;;;10.20;83.40;;;;;;2347569;57;21033;-51
2022/12/20 08:41:37;;;;;;;21.12;12.63;;;10.20;83.40;;;;;;2346237;57;21172;-51
2022/12/20 08:44:05;;;;;;;22.27;13.52;;;10.20;83.30;;;;;;2346901;57;21042;-48
2022/12/20 08:46:33;;;;;;;21.73;12.30;;;10.20;83.20;;;;;;2346284;57;21085;-50
2022/12/20 08:49:00;;;;;;;22.75;12.93;;;10.20;83.10;;;;;;2347122;57;21033;-50
2022/12/20 08:51:27;;;;;;;20.45;12.63;;;10.20;83.10;;;;;;2347295;57;21053;-48
2022/12/20 08:53:55;;;;;;;22.20;12.07;;;10.20;83.10;;;;;;2347181;57;21521;-48
2022/12/20 08:56:22;;;;;;;26.70;12.68;;;10.20;83.80;;;;;;2347046;57;21109;-50
2022/12/20 08:58:50;;;;;;;24.75;12.98;;;10.20;83.20;;;;;;2348347;57;21069;-51
2022/12/20 09:01:19;;;;;;;22.48;13.00;;;10.20;83.30;;;;;;2347379;57;21049;-48
2022/12/20 09:03:47;;;;;;;20.40;12.37;;;10.20;83.50;;;;;;2348058;57;21017;-51
2022/12/20 09:06:16;;;;;;;18.98;11.52;;;10.20;83.10;;;;;;2348539;57;21036;-49
2022/12/20 09:08:43;;;;;;;17.15;11.30;;;10.20;83.40;;;;;;2346855;57;21033;-48
2022/12/20 09:11:14;;;;;;;23.65;12.75;;;10.20;83.20;;;;;;2347006;57;21592;-51
2022/12/20 09:13:43;;;;;;;20.83;12.57;;;10.20;83.30;;;;;;2346646;57;22160;-49
2022/12/20 09:16:12;;;;;;;19.33;11.85;;;10.30;83.50;;;;;;2346110;57;21120;-49
2022/12/20 09:18:40;;;;;;;20.92;12.43;;;10.30;83.50;;;;;;2346607;57;21542;-49
2022/12/20 09:21:08;;;;;;;19.65;11.73;;;10.30;83.50;;;;;;2344594;57;21049;-47
2022/12/20 09:23:37;;;;;;;23.40;12.10;;;10.30;83.50;;;;;;2345434;57;21144;-50
2022/12/20 09:26:06;;;;;;;19.48;11.73;;;10.30;83.40;;;;;;2346381;57;21518;-48
2022/12/20 09:28:34;;;;;;;19.15;11.93;;;10.30;83.60;;;;;;2346833;57;21514;-51
2022/12/20 09:31:03;;;;;;;20.33;11.48;;;10.30;83.60;;;;;;2346069;57;21657;-49
2022/12/20 09:33:32;;;;;;;20.62;11.93;;;10.30;83.50;;;;;;2346000;57;21518;-49
2022/12/20 09:36:00;;;;;;;21.60;11.70;;;10.40;83.60;;;;;;2346421;57;21514;-51
2022/12/20 09:38:28;;;;;;;21.92;12.25;;;10.40;83.60;;;;;;2345936;57;21054;-50
2022/12/20 09:40:58;;;;;;;18.73;12.15;;;10.40;83.70;;;;;;2345422;57;21604;-49
2022/12/20 09:43:26;;;;;;;20.05;11.43;;;10.40;83.60;;;;;;2345923;57;21590;-51
2022/12/20 09:45:56;;;;;;;17.45;11.15;;;10.40;83.60;;;;;;2346045;57;21034;-50
2022/12/20 09:48:28;;;;;;;18.48;12.00;;;10.40;83.60;;;;;;2345660;57;21673;-51
2022/12/20 09:51:06;;;;;;;19.75;11.25;;;10.40;83.50;;;;;;2346124;57;21510;-51
2022/12/20 09:53:42;;;;;;;19.05;10.82;;;10.50;83.50;;;;;;2347121;57;21026;-49
2022/12/20 09:56:15;;;;;;;19.55;10.85;;;10.50;83.20;;;;;;2346825;57;21132;-49
2022/12/20 09:58:59;;;;;;;19.90;11.38;;;10.50;83.30;;;;;;2347700;57;21577;-51
2022/12/20 10:01:29;;;;;;;19.40;11.70;;;10.50;83.10;;;;;;2346723;57;21054;-50
2022/12/20 10:03:58;;;;;;;17.80;11.15;;;10.60;83.00;;;;;;2345699;57;21547;-50
2022/12/20 10:06:40;;;;;;;18.95;11.25;;;10.60;83.40;;;;;;2345986;57;21625;-50
2022/12/20 10:09:19;;;;;;;17.75;11.00;;;10.60;83.60;;;;;;2345044;57;21585;-50
2022/12/20 10:12:00;;;;;;;20.23;12.32;;;10.70;83.60;;;;;;2344770;57;21684;-49
2022/12/20 10:14:41;;;;;;;18.50;11.52;;;10.70;83.40;;;;;;2344171;57;21021;-48
2022/12/20 10:17:14;;;;;;;14.32;9.77;;;10.70;83.40;;;;;;2345270;57;21136;-50
2022/12/20 10:20:07;;;;;;;20.08;11.20;;;10.80;83.20;;;;;;2346195;57;21578;-49
2022/12/20 10:22:41;;;;;;;17.37;11.10;;;10.70;82.90;;;;;;2344902;57;21149;-52
2022/12/20 10:25:18;;;;;;;16.67;10.27;;;10.80;82.70;;;;;;2344392;57;21509;-51
2022/12/20 10:27:47;;;;;;;15.40;10.13;;;10.80;82.80;;;;;;2345939;57;21566;-50
2022/12/20 10:30:17;;;;;;;16.77;9.70;;;10.80;83.00;;;;;;2345395;57;21097;-51
2022/12/20 10:32:47;;;;;;;15.02;10.90;;;10.90;83.10;;;;;;2344264;57;21050;-49
2022/12/20 10:35:25;;;;;;;14.70;10.48;;;10.90;83.20;;;;;;2345234;57;21541;-50
2022/12/20 10:38:00;;;;;;;15.50;10.32;;;11.00;83.40;;;;;;2344467;57;21081;-49
2022/12/20 10:40:30;;;;;;;16.05;10.63;;;11.00;83.50;;;;;;2344460;57;21061;-50
2022/12/20 10:42:58;;;;;;;15.80;10.32;;;11.00;83.40;;;;;;2344571;57;21522;-48
2022/12/20 10:45:34;;;;;;;13.95;10.32;;;11.00;83.50;;;;;;2346977;57;21502;-51
2022/12/20 10:48:04;;;;;;;14.77;9.45;;;11.10;83.50;;;;;;2347231;57;21029;-48
2022/12/20 10:50:32;;;;;;;15.85;11.02;;;11.10;84.00;;;;;;2347285;57;21018;-49
2022/12/20 10:53:20;;;;;;;16.65;10.88;;;11.20;83.20;;;;;;2347139;57;21064;-50
2022/12/20 10:55:47;;;;;;;16.67;11.80;;;11.20;83.20;;;;;;2346459;57;21113;-48
2022/12/20 10:58:17;;;;;;;16.62;10.20;;;11.20;83.20;;;;;;2344550;57;21014;-50
2022/12/20 11:00:46;;;;;;;16.98;10.90;;;11.20;83.30;;;;;;2346057;57;21631;-51
2022/12/20 11:03:17;;;;;;;16.52;9.65;;;11.30;83.10;;;;;;2345985;57;21049;-49
2022/12/20 11:05:55;;;;;;;15.82;9.98;;;11.30;82.90;;;;;;2346038;57;21089;-49
2022/12/20 11:08:23;;;;;;;16.60;9.70;;;11.30;82.80;;;;;;2345014;57;21068;-51
2022/12/20 11:11:08;;;;;;;19.75;10.82;;;11.40;82.80;;;;;;2345960;57;21061;-46
2022/12/20 11:13:36;;;;;;;17.27;10.48;;;11.40;82.70;;;;;;2346045;57;21534;-50
2022/12/20 11:16:03;;;;;;;17.48;10.18;;;11.40;82.30;;;;;;2346074;57;21038;-51
2022/12/20 11:18:43;;;;;;;18.87;10.32;;;11.50;82.30;;;;;;2346377;57;21553;-49
2022/12/20 11:21:22;;;;;;;14.75;10.23;;;11.50;82.30;;;;;;2346296;57;21129;-50
2022/12/20 11:23:57;;;;;;;14.65;9.48;;;11.50;82.00;;;;;;2345766;57;21759;-50
2022/12/20 11:26:41;;;;;;;16.37;10.68;;;11.50;82.00;;;;;;2345464;57;21601;-52
2022/12/20 11:29:20;;;;;;;13.32;9.55;;;11.50;82.00;;;;;;2345187;57;21754;-49
2022/12/20 11:31:56;;;;;;;14.18;9.52;;;11.50;81.70;;;;;;2345758;57;21117;-51
2022/12/20 11:34:36;;;;;;;14.30;8.48;;;11.60;81.70;;;;;;2345767;57;21117;-50
2022/12/20 11:37:16;;;;;;;14.73;9.20;;;11.60;82.60;;;;;;2345446;57;21050;-51
2022/12/20 11:39:57;;;;;;;18.58;10.40;;;11.60;81.80;;;;;;2346826;57;21132;-52
2022/12/20 11:42:33;;;;;;;18.00;10.73;;;11.70;81.60;;;;;;2346625;57;21098;-51
2022/12/20 11:45:07;;;;;;;15.73;9.48;;;11.60;81.40;;;;;;2346843;57;21064;-51
2022/12/20 11:48:03;;;;;;;13.73;8.73;;;11.70;81.50;;;;;;2346818;57;21567;-50
2022/12/20 11:50:44;;;;;;;16.65;9.43;;;11.70;81.40;;;;;;2345979;57;21533;-49
2022/12/20 11:53:20;;;;;;;15.88;9.90;;;11.70;80.90;;;;;;2346093;57;21648;-48
2022/12/20 11:55:52;;;;;;;18.05;9.48;;;11.70;80.80;;;;;;2345851;57;21509;-50
2022/12/20 11:58:25;;;;;;;15.20;9.20;;;11.70;80.80;;;;;;2592845;52;21510;-50
2022/12/20 12:00:57;;;;;;;15.20;9.27;;;11.70;80.60;;;;;;2346891;57;21042;-51
2022/12/20 12:03:29;;;;;;;14.70;8.63;;;11.60;80.60;;;;;;2345776;57;21026;-50
2022/12/20 12:06:00;;;;;;;12.95;9.00;;;11.70;80.60;;;;;;2346771;57;21049;-47
2022/12/20 12:08:33;;;;;;;13.45;9.07;;;11.60;80.50;;;;;;2345304;57;21050;-51
2022/12/20 12:11:06;;;;;;;14.13;8.77;;;11.60;80.50;;;;;;2345927;57;21136;-47
2022/12/20 12:13:38;;;;;;;17.12;10.48;;;11.70;80.60;;;;;;2346118;57;21050;-52
2022/12/20 12:18:41;;;;;;;14.98;9.15;;;11.60;80.40;;;;;;2343443;57;22187;-49
2022/12/20 12:21:17;;;;;;;14.63;8.48;;;11.70;80.10;;;;;;2345505;57;21613;-52
2022/12/20 12:23:55;;;;;;;14.50;9.15;;;11.60;80.00;;;;;;2346404;57;21049;-52
2022/12/20 12:26:30;;;;;;;16.62;8.60;;;11.60;79.90;;;;;;2348123;57;21101;-50
2022/12/20 12:28:59;;;;;;;14.38;9.40;;;11.60;79.90;;;;;;2348247;57;21021;-50
2022/12/20 12:31:33;;;;;;;14.68;9.07;;;11.60;79.90;;;;;;2348065;57;21495;-52
2022/12/20 12:34:08;;;;;;;17.30;9.02;;;11.60;79.90;;;;;;2348256;57;21088;-53
2022/12/20 12:36:55;;;;;;;13.40;8.82;;;11.60;79.80;;;;;;2347899;57;21101;-53
2022/12/20 12:43:04;;;;;;;21.55;9.30;;;11.60;80.00;;;;;;2353783;57;22086;-51
2022/12/20 12:45:37;;;;;;;19.87;11.07;;;11.60;79.90;;;;;;2346213;57;21049;-50
2022/12/20 12:48:13;;;;;;;23.30;11.95;;;11.60;79.70;;;;;;2349200;56;21556;-50
2022/12/20 12:50:45;;;;;;;15.63;9.63;;;11.60;79.60;;;;;;2374033;56;21046;-53
2022/12/20 12:53:17;;;;;;;14.52;9.13;;;11.50;79.70;;;;;;2373610;56;21617;-53
2022/12/20 12:55:46;;;;;;;17.95;9.70;;;11.50;79.80;;;;;;2374307;56;21609;-50
2022/12/20 12:58:31;;;;;;;15.27;9.05;;;11.50;79.70;;;;;;2374283;56;21031;-51
2022/12/20 13:01:00;;;;;;;15.43;8.38;;;11.60;79.90;;;;;;2373602;56;21106;-53
2022/12/20 13:03:40;;;;;;;15.15;9.30;;;11.50;80.00;;;;;;2373598;56;21019;-51
2022/12/20 13:06:43;;;;;;;15.70;9.40;;;11.50;80.20;;;;;;2374156;56;21026;-54
2022/12/20 13:09:19;;;;;;;15.77;9.40;;;11.50;80.40;;;;;;2374258;56;21674;-53
2022/12/20 13:11:47;;;;;;;13.77;9.50;;;11.50;80.20;;;;;;2374292;56;21582;-53
2022/12/20 13:14:51;;;;;;;16.62;10.05;;;11.50;80.40;;;;;;2374355;56;21043;-54
2022/12/20 13:17:49;;;;;;;16.50;9.40;;;11.50;80.70;;;;;;2375101;56;21019;-53